Tonganoxie, KS

12:40 AM CST on February 09, 2016 (GMT -0600)
KTGX | | Change Station
CLOSE
Current Station
Personal Weather Station
Location: Tonganoxie, KS
Elevation: 861 ft
Nearby Weather Stations

Elev 861 ft 39.12 °N, 95.06 °W | Updated 12 seconds ago

Overcast
Overcast
30.5 °F
Feels Like 21 °F
N
11.0
Wind Variable Wind from NNW
Gusts 25.0 mph

Today
High -- | Low -- °F
--% Chance of Precip.
Yesterday
High -- | Low -- °F
Precip. -- in
Pressure 30.11 in
Visibility 10.0 miles
Clouds Overcast 4600 ft
Windchill 21 °F
Dew Point 21 °F
Humidity 68%
Rainfall 0.00 in
Snow Depth Not available.
7:19 AM 5:50 PM
New Moon, 1% visible
METAR KLWC 090552Z AUTO 32006KT 10SM OVC046 M01/M07 A3009 RMK AO2 SLP196 T10061067 10000 21028 400331028 56010
Pressure 30.11 in
Visibility 10.0 miles
Clouds Overcast 4600 ft
Windchill 21 °F
Dew Point 21 °F
Humidity 68%
Rainfall 0.00 in
Snow Depth Not available.
7:19 AM 5:50 PM
New Moon, 1% visible
METAR KLWC 090552Z AUTO 32006KT 10SM OVC046 M01/M07 A3009 RMK AO2 SLP196 T10061067 10000 21028 400331028 56010

10-Day Weather Forecast

Almanac

Astronomy

Feb. 09, 2016 Rise Set
Actual Time
Civil Twilight
Nautical Twilight
Astronomical Twilight
Moon
Length of Visible Light
Length of Day
Tomorrow will be .
, % of the Moon is Illuminated

Today's Extremes

State Highs State Lows

Community

WunderPhotos

Upload Photos

1,891,571 photos uploaded!

WunderBlog® & News

Nearby

Air Quality

  Air Quality AQ Index Pollutant
Not available.

Snow Depth

Station Depth Elevation

Earthquake Activity

City Distance Mag. Time & Date
Minimum magnitude displayed is 2.5.

Coastal Water Temperatures

Place Temperature

Stations

Nearby Weather Stations

Station Location Temp. Windchill Dew Point Humidity Wind Precip. Elev Updated Type
                   

Watches & Warnings

There are currently no watches in effect.